Terminal Aerodrome Forecast
Issued by NWS North Platte, NE

Home | Current Version | Previous Version | Text Only | Print | Product List | Glossary Off
Versions: 1 2 3 4 5 6 7 8 9 10 11 12 13 14 15 16 17 18

000
FTUS43 KLBF 270900 AAA
TAFVTN
TAF AMD
KVTN 270940Z 2710/2806 11007KT P6SM OVC040
     FM271500 15009KT P6SM SCT050 BKN080
     FM271900 18012KT P6SM SCT080 BKN200
     FM280000 VRB06KT P6SM SCT250=

USA.gov is the U.S. government's official web portal to all federal, state and local government web resources and services.